sensor_id;sensor_type;location;lat;lon;timestamp;temperature;humidity
3418;DHT22;1722;51.316;12.370;2023-02-05T00:01:51;2.80;90.80
3418;DHT22;1722;51.316;12.370;2023-02-05T00:04:18;2.80;90.60
3418;DHT22;1722;51.316;12.370;2023-02-05T00:06:46;2.70;90.60
3418;DHT22;1722;51.316;12.370;2023-02-05T00:09:14;2.70;90.60
3418;DHT22;1722;51.316;12.370;2023-02-05T00:11:43;2.70;90.80
3418;DHT22;1722;51.316;12.370;2023-02-05T00:14:10;2.60;90.60
3418;DHT22;1722;51.316;12.370;2023-02-05T00:16:38;2.60;90.70
3418;DHT22;1722;51.316;12.370;2023-02-05T00:19:05;2.60;90.70
3418;DHT22;1722;51.316;12.370;2023-02-05T00:21:33;2.60;90.80
3418;DHT22;1722;51.316;12.370;2023-02-05T00:24:00;2.50;90.80
3418;DHT22;1722;51.316;12.370;2023-02-05T00:26:28;2.50;90.80
3418;DHT22;1722;51.316;12.370;2023-02-05T00:28:57;2.50;90.70
3418;DHT22;1722;51.316;12.370;2023-02-05T00:31:24;2.50;90.80
3418;DHT22;1722;51.316;12.370;2023-02-05T00:33:52;2.50;90.80
3418;DHT22;1722;51.316;12.370;2023-02-05T00:36:20;2.40;90.70
3418;DHT22;1722;51.316;12.370;2023-02-05T00:38:49;2.40;90.80
3418;DHT22;1722;51.316;12.370;2023-02-05T00:41:17;2.40;90.90
3418;DHT22;1722;51.316;12.370;2023-02-05T00:43:45;2.30;90.80
3418;DHT22;1722;51.316;12.370;2023-02-05T00:46:14;2.30;90.90
3418;DHT22;1722;51.316;12.370;2023-02-05T00:48:42;2.30;91.00
3418;DHT22;1722;51.316;12.370;2023-02-05T00:51:10;2.30;91.00
3418;DHT22;1722;51.316;12.370;2023-02-05T00:53:37;2.30;90.90
3418;DHT22;1722;51.316;12.370;2023-02-05T00:56:05;2.30;91.00
3418;DHT22;1722;51.316;12.370;2023-02-05T00:58:33;2.30;91.10
3418;DHT22;1722;51.316;12.370;2023-02-05T01:01:01;2.30;91.10
3418;DHT22;1722;51.316;12.370;2023-02-05T01:03:29;2.30;91.10
3418;DHT22;1722;51.316;12.370;2023-02-05T01:05:57;2.20;90.80
3418;DHT22;1722;51.316;12.370;2023-02-05T01:08:24;2.20;91.20
3418;DHT22;1722;51.316;12.370;2023-02-05T01:10:52;2.20;91.10
3418;DHT22;1722;51.316;12.370;2023-02-05T01:13:21;2.20;91.10
3418;DHT22;1722;51.316;12.370;2023-02-05T01:15:49;2.20;91.00
3418;DHT22;1722;51.316;12.370;2023-02-05T01:18:17;2.20;91.00
3418;DHT22;1722;51.316;12.370;2023-02-05T01:20:46;2.20;91.00
3418;DHT22;1722;51.316;12.370;2023-02-05T01:23:13;2.20;91.00
3418;DHT22;1722;51.316;12.370;2023-02-05T01:25:41;2.20;91.10
3418;DHT22;1722;51.316;12.370;2023-02-05T01:28:08;2.10;91.00
3418;DHT22;1722;51.316;12.370;2023-02-05T01:30:36;2.20;91.00
3418;DHT22;1722;51.316;12.370;2023-02-05T01:33:04;2.10;91.00
3418;DHT22;1722;51.316;12.370;2023-02-05T01:35:32;2.10;91.00
3418;DHT22;1722;51.316;12.370;2023-02-05T01:38:00;2.10;91.10
3418;DHT22;1722;51.316;12.370;2023-02-05T01:40:28;2.10;91.10
3418;DHT22;1722;51.316;12.370;2023-02-05T01:42:55;2.00;91.00
3418;DHT22;1722;51.316;12.370;2023-02-05T01:45:43;2.00;91.00
3418;DHT22;1722;51.316;12.370;2023-02-05T01:48:17;2.10;90.90
3418;DHT22;1722;51.316;12.370;2023-02-05T01:50:49;2.00;90.90
3418;DHT22;1722;51.316;12.370;2023-02-05T01:53:23;2.00;91.00
3418;DHT22;1722;51.316;12.370;2023-02-05T01:55:54;2.00;90.70
3418;DHT22;1722;51.316;12.370;2023-02-05T01:58:23;2.00;90.70
3418;DHT22;1722;51.316;12.370;2023-02-05T02:00:52;2.00;90.70
3418;DHT22;1722;51.316;12.370;2023-02-05T02:03:20;1.90;90.60
3418;DHT22;1722;51.316;12.370;2023-02-05T02:05:48;1.90;90.60
3418;DHT22;1722;51.316;12.370;2023-02-05T02:08:16;1.90;90.60
3418;DHT22;1722;51.316;12.370;2023-02-05T02:10:45;1.90;90.60
3418;DHT22;1722;51.316;12.370;2023-02-05T02:13:14;1.90;90.40
3418;DHT22;1722;51.316;12.370;2023-02-05T02:15:44;1.80;90.40
3418;DHT22;1722;51.316;12.370;2023-02-05T02:18:13;1.80;90.50
3418;DHT22;1722;51.316;12.370;2023-02-05T02:21:24;1.80;90.60
3418;DHT22;1722;51.316;12.370;2023-02-05T02:24:16;1.70;90.60
3418;DHT22;1722;51.316;12.370;2023-02-05T02:27:03;1.80;90.60
3418;DHT22;1722;51.316;12.370;2023-02-05T02:29:36;1.70;90.60
3418;DHT22;1722;51.316;12.370;2023-02-05T02:32:12;1.60;90.40
3418;DHT22;1722;51.316;12.370;2023-02-05T02:34:44;1.70;90.70
3418;DHT22;1722;51.316;12.370;2023-02-05T02:37:19;1.70;90.70
3418;DHT22;1722;51.316;12.370;2023-02-05T02:39:56;1.70;90.70
3418;DHT22;1722;51.316;12.370;2023-02-05T02:42:30;1.60;90.60
3418;DHT22;1722;51.316;12.370;2023-02-05T02:45:04;1.60;90.80
3418;DHT22;1722;51.316;12.370;2023-02-05T02:47:37;1.60;90.90
3418;DHT22;1722;51.316;12.370;2023-02-05T02:50:09;1.60;90.90
3418;DHT22;1722;51.316;12.370;2023-02-05T02:52:39;1.60;90.70
3418;DHT22;1722;51.316;12.370;2023-02-05T02:55:10;1.50;90.60
3418;DHT22;1722;51.316;12.370;2023-02-05T02:57:40;1.50;90.70
3418;DHT22;1722;51.316;12.370;2023-02-05T03:00:13;1.50;90.80
3418;DHT22;1722;51.316;12.370;2023-02-05T03:02:44;1.50;90.80
3418;DHT22;1722;51.316;12.370;2023-02-05T03:05:17;1.50;90.80
3418;DHT22;1722;51.316;12.370;2023-02-05T03:07:47;1.60;90.90
3418;DHT22;1722;51.316;12.370;2023-02-05T03:10:22;1.50;90.80
3418;DHT22;1722;51.316;12.370;2023-02-05T03:12:50;1.50;90.70
3418;DHT22;1722;51.316;12.370;2023-02-05T03:15:19;1.50;90.80
3418;DHT22;1722;51.316;12.370;2023-02-05T03:17:47;1.50;90.70
3418;DHT22;1722;51.316;12.370;2023-02-05T03:20:20;1.50;90.80
3418;DHT22;1722;51.316;12.370;2023-02-05T03:22:49;1.50;90.80
3418;DHT22;1722;51.316;12.370;2023-02-05T03:25:19;1.50;90.90
3418;DHT22;1722;51.316;12.370;2023-02-05T03:27:47;1.50;90.90
3418;DHT22;1722;51.316;12.370;2023-02-05T03:30:15;1.50;90.90
3418;DHT22;1722;51.316;12.370;2023-02-05T03:32:53;1.40;90.90
3418;DHT22;1722;51.316;12.370;2023-02-05T03:35:29;1.40;90.90
3418;DHT22;1722;51.316;12.370;2023-02-05T03:38:21;1.40;91.20
3418;DHT22;1722;51.316;12.370;2023-02-05T03:40:53;1.40;91.00
3418;DHT22;1722;51.316;12.370;2023-02-05T03:43:30;1.30;91.00
3418;DHT22;1722;51.316;12.370;2023-02-05T03:46:02;1.30;91.10
3418;DHT22;1722;51.316;12.370;2023-02-05T03:48:41;1.20;91.10
3418;DHT22;1722;51.316;12.370;2023-02-05T03:51:19;1.30;91.20
3418;DHT22;1722;51.316;12.370;2023-02-05T03:53:56;1.20;91.20
3418;DHT22;1722;51.316;12.370;2023-02-05T03:56:32;1.20;91.20
3418;DHT22;1722;51.316;12.370;2023-02-05T03:59:01;1.20;91.30
3418;DHT22;1722;51.316;12.370;2023-02-05T04:01:30;1.20;91.20
3418;DHT22;1722;51.316;12.370;2023-02-05T04:03:59;1.20;91.30
3418;DHT22;1722;51.316;12.370;2023-02-05T04:06:26;1.20;91.20
3418;DHT22;1722;51.316;12.370;2023-02-05T04:08:54;1.20;91.20
3418;DHT22;1722;51.316;12.370;2023-02-05T04:11:21;1.10;91.20
3418;DHT22;1722;51.316;12.370;2023-02-05T04:13:49;1.10;91.10
3418;DHT22;1722;51.316;12.370;2023-02-05T04:16:16;1.10;91.10
3418;DHT22;1722;51.316;12.370;2023-02-05T04:18:44;1.10;91.10
3418;DHT22;1722;51.316;12.370;2023-02-05T04:21:13;1.10;91.20
3418;DHT22;1722;51.316;12.370;2023-02-05T04:23:40;1.10;91.20
3418;DHT22;1722;51.316;12.370;2023-02-05T04:26:08;1.10;91.20
3418;DHT22;1722;51.316;12.370;2023-02-05T04:28:35;1.00;91.50
3418;DHT22;1722;51.316;12.370;2023-02-05T04:31:05;1.00;91.00
3418;DHT22;1722;51.316;12.370;2023-02-05T04:33:33;1.00;91.20
3418;DHT22;1722;51.316;12.370;2023-02-05T04:36:01;1.00;91.10
3418;DHT22;1722;51.316;12.370;2023-02-05T04:38:30;1.00;91.20
3418;DHT22;1722;51.316;12.370;2023-02-05T04:40:57;1.00;91.20
3418;DHT22;1722;51.316;12.370;2023-02-05T04:43:25;1.00;91.10
3418;DHT22;1722;51.316;12.370;2023-02-05T04:45:53;1.00;91.20
3418;DHT22;1722;51.316;12.370;2023-02-05T04:48:20;0.90;91.10
3418;DHT22;1722;51.316;12.370;2023-02-05T04:50:48;0.90;91.20
3418;DHT22;1722;51.316;12.370;2023-02-05T04:53:15;0.90;91.20
3418;DHT22;1722;51.316;12.370;2023-02-05T04:55:44;0.90;91.20
3418;DHT22;1722;51.316;12.370;2023-02-05T04:58:11;0.90;91.20
3418;DHT22;1722;51.316;12.370;2023-02-05T05:00:39;0.80;91.30
3418;DHT22;1722;51.316;12.370;2023-02-05T05:03:06;0.80;91.30
3418;DHT22;1722;51.316;12.370;2023-02-05T05:05:34;0.80;91.60
3418;DHT22;1722;51.316;12.370;2023-02-05T05:08:02;0.80;91.30
3418;DHT22;1722;51.316;12.370;2023-02-05T05:10:29;0.80;91.30
3418;DHT22;1722;51.316;12.370;2023-02-05T05:12:58;0.80;91.30
3418;DHT22;1722;51.316;12.370;2023-02-05T05:15:25;0.80;91.40
3418;DHT22;1722;51.316;12.370;2023-02-05T05:17:53;0.70;91.30
3418;DHT22;1722;51.316;12.370;2023-02-05T05:20:20;0.70;91.40
3418;DHT22;1722;51.316;12.370;2023-02-05T05:22:48;0.70;91.30
3418;DHT22;1722;51.316;12.370;2023-02-05T05:25:15;0.70;91.40
3418;DHT22;1722;51.316;12.370;2023-02-05T05:27:43;0.60;91.40
3418;DHT22;1722;51.316;12.370;2023-02-05T05:30:13;0.60;91.40
3418;DHT22;1722;51.316;12.370;2023-02-05T05:32:40;0.60;91.50
3418;DHT22;1722;51.316;12.370;2023-02-05T05:35:08;0.60;91.50
3418;DHT22;1722;51.316;12.370;2023-02-05T05:37:35;0.60;91.40
3418;DHT22;1722;51.316;12.370;2023-02-05T05:40:03;0.60;91.50
3418;DHT22;1722;51.316;12.370;2023-02-05T05:42:48;0.60;91.50
3418;DHT22;1722;51.316;12.370;2023-02-05T05:45:35;0.60;91.60
3418;DHT22;1722;51.316;12.370;2023-02-05T05:48:02;0.60;91.60
3418;DHT22;1722;51.316;12.370;2023-02-05T05:50:30;0.50;91.60
3418;DHT22;1722;51.316;12.370;2023-02-05T05:52:57;0.50;91.60
3418;DHT22;1722;51.316;12.370;2023-02-05T05:55:25;0.50;91.60
3418;DHT22;1722;51.316;12.370;2023-02-05T05:57:52;0.50;91.60
3418;DHT22;1722;51.316;12.370;2023-02-05T06:00:20;0.50;91.70
3418;DHT22;1722;51.316;12.370;2023-02-05T06:02:49;0.50;91.70
3418;DHT22;1722;51.316;12.370;2023-02-05T06:05:16;0.50;91.80
3418;DHT22;1722;51.316;12.370;2023-02-05T06:07:44;0.40;92.00
3418;DHT22;1722;51.316;12.370;2023-02-05T06:10:12;0.50;91.70
3418;DHT22;1722;51.316;12.370;2023-02-05T06:12:39;0.40;91.70
3418;DHT22;1722;51.316;12.370;2023-02-05T06:15:07;0.50;91.80
3418;DHT22;1722;51.316;12.370;2023-02-05T06:17:35;0.50;91.70
3418;DHT22;1722;51.316;12.370;2023-02-05T06:20:05;0.40;91.80
3418;DHT22;1722;51.316;12.370;2023-02-05T06:22:32;0.40;91.80
3418;DHT22;1722;51.316;12.370;2023-02-05T06:25:00;0.40;91.80
3418;DHT22;1722;51.316;12.370;2023-02-05T06:27:29;0.40;91.80
3418;DHT22;1722;51.316;12.370;2023-02-05T06:29:57;0.40;91.80
3418;DHT22;1722;51.316;12.370;2023-02-05T06:32:24;0.40;91.90
3418;DHT22;1722;51.316;12.370;2023-02-05T06:34:52;0.40;91.90
3418;DHT22;1722;51.316;12.370;2023-02-05T06:37:21;0.40;92.10
3418;DHT22;1722;51.316;12.370;2023-02-05T06:39:50;0.50;92.10
3418;DHT22;1722;51.316;12.370;2023-02-05T06:42:18;0.50;92.00
3418;DHT22;1722;51.316;12.370;2023-02-05T06:44:45;0.50;91.90
3418;DHT22;1722;51.316;12.370;2023-02-05T06:47:13;0.50;91.90
3418;DHT22;1722;51.316;12.370;2023-02-05T06:49:41;0.50;91.90
3418;DHT22;1722;51.316;12.370;2023-02-05T06:52:08;0.40;91.90
3418;DHT22;1722;51.316;12.370;2023-02-05T06:54:37;0.40;91.90
3418;DHT22;1722;51.316;12.370;2023-02-05T06:57:05;0.40;91.90
3418;DHT22;1722;51.316;12.370;2023-02-05T06:59:32;0.40;91.90
3418;DHT22;1722;51.316;12.370;2023-02-05T07:02:00;0.40;91.90
3418;DHT22;1722;51.316;12.370;2023-02-05T07:04:27;0.40;91.90
3418;DHT22;1722;51.316;12.370;2023-02-05T07:06:56;0.40;91.90
3418;DHT22;1722;51.316;12.370;2023-02-05T07:09:24;0.40;91.90
3418;DHT22;1722;51.316;12.370;2023-02-05T07:11:53;0.40;91.90
3418;DHT22;1722;51.316;12.370;2023-02-05T07:14:20;0.40;91.90
3418;DHT22;1722;51.316;12.370;2023-02-05T07:16:48;0.40;92.30
3418;DHT22;1722;51.316;12.370;2023-02-05T07:19:16;0.40;92.00
3418;DHT22;1722;51.316;12.370;2023-02-05T07:21:44;0.40;92.10
3418;DHT22;1722;51.316;12.370;2023-02-05T07:24:11;0.40;92.10
3418;DHT22;1722;51.316;12.370;2023-02-05T07:26:40;0.40;92.40
3418;DHT22;1722;51.316;12.370;2023-02-05T07:29:10;0.50;92.10
3418;DHT22;1722;51.316;12.370;2023-02-05T07:31:37;0.50;92.10
3418;DHT22;1722;51.316;12.370;2023-02-05T07:34:05;0.50;92.20
3418;DHT22;1722;51.316;12.370;2023-02-05T07:36:32;0.50;92.30
3418;DHT22;1722;51.316;12.370;2023-02-05T07:39:00;0.50;92.20
3418;DHT22;1722;51.316;12.370;2023-02-05T07:41:27;0.50;92.10
3418;DHT22;1722;51.316;12.370;2023-02-05T07:43:55;0.50;92.20
3418;DHT22;1722;51.316;12.370;2023-02-05T07:46:24;0.50;92.20
3418;DHT22;1722;51.316;12.370;2023-02-05T07:48:51;0.50;92.30
3418;DHT22;1722;51.316;12.370;2023-02-05T07:51:20;0.50;92.40
3418;DHT22;1722;51.316;12.370;2023-02-05T07:53:48;0.50;92.40
3418;DHT22;1722;51.316;12.370;2023-02-05T07:56:17;0.60;92.50
3418;DHT22;1722;51.316;12.370;2023-02-05T07:58:46;0.50;92.50
3418;DHT22;1722;51.316;12.370;2023-02-05T08:01:14;0.60;92.50
3418;DHT22;1722;51.316;12.370;2023-02-05T08:03:43;0.60;92.60
3418;DHT22;1722;51.316;12.370;2023-02-05T08:06:13;0.70;92.70
3418;DHT22;1722;51.316;12.370;2023-02-05T08:08:41;0.70;92.60
3418;DHT22;1722;51.316;12.370;2023-02-05T08:11:12;0.70;92.70
3418;DHT22;1722;51.316;12.370;2023-02-05T08:13:41;0.70;92.70
3418;DHT22;1722;51.316;12.370;2023-02-05T08:16:09;0.70;92.70
3418;DHT22;1722;51.316;12.370;2023-02-05T08:18:37;0.80;92.80
3418;DHT22;1722;51.316;12.370;2023-02-05T08:21:06;0.80;92.80
3418;DHT22;1722;51.316;12.370;2023-02-05T08:23:34;0.80;92.80
3418;DHT22;1722;51.316;12.370;2023-02-05T08:26:01;0.80;93.40
3418;DHT22;1722;51.316;12.370;2023-02-05T08:28:29;0.90;93.30
3418;DHT22;1722;51.316;12.370;2023-02-05T08:30:56;0.90;93.30
3418;DHT22;1722;51.316;12.370;2023-02-05T08:33:24;1.00;94.00
3418;DHT22;1722;51.316;12.370;2023-02-05T08:35:51;1.00;94.20
3418;DHT22;1722;51.316;12.370;2023-02-05T08:38:20;1.00;93.60
3418;DHT22;1722;51.316;12.370;2023-02-05T08:40:48;1.10;93.50
3418;DHT22;1722;51.316;12.370;2023-02-05T08:43:15;1.10;94.00
3418;DHT22;1722;51.316;12.370;2023-02-05T08:45:45;1.10;94.10
3418;DHT22;1722;51.316;12.370;2023-02-05T08:48:13;1.10;94.80
3418;DHT22;1722;51.316;12.370;2023-02-05T08:50:44;1.10;94.90
3418;DHT22;1722;51.316;12.370;2023-02-05T08:53:11;1.20;93.90
3418;DHT22;1722;51.316;12.370;2023-02-05T08:55:40;1.20;93.60
3418;DHT22;1722;51.316;12.370;2023-02-05T08:58:07;1.20;95.00
3418;DHT22;1722;51.316;12.370;2023-02-05T09:00:35;1.20;94.90
3418;DHT22;1722;51.316;12.370;2023-02-05T09:03:05;1.20;94.10
3418;DHT22;1722;51.316;12.370;2023-02-05T09:05:34;1.30;93.80
3418;DHT22;1722;51.316;12.370;2023-02-05T09:08:01;1.40;93.80
3418;DHT22;1722;51.316;12.370;2023-02-05T09:10:29;1.40;94.10
3418;DHT22;1722;51.316;12.370;2023-02-05T09:12:58;1.40;93.90
3418;DHT22;1722;51.316;12.370;2023-02-05T09:15:25;1.40;95.00
3418;DHT22;1722;51.316;12.370;2023-02-05T09:17:53;1.40;94.40
3418;DHT22;1722;51.316;12.370;2023-02-05T09:20:20;1.50;94.40
3418;DHT22;1722;51.316;12.370;2023-02-05T09:22:48;1.60;95.30
3418;DHT22;1722;51.316;12.370;2023-02-05T09:25:17;1.60;94.60
3418;DHT22;1722;51.316;12.370;2023-02-05T09:27:45;1.70;94.20
3418;DHT22;1722;51.316;12.370;2023-02-05T09:30:16;1.70;93.90
3418;DHT22;1722;51.316;12.370;2023-02-05T09:32:44;1.70;94.50
3418;DHT22;1722;51.316;12.370;2023-02-05T09:35:11;1.70;95.00
3418;DHT22;1722;51.316;12.370;2023-02-05T09:37:39;1.70;94.20
3418;DHT22;1722;51.316;12.370;2023-02-05T09:40:11;1.80;94.10
3418;DHT22;1722;51.316;12.370;2023-02-05T09:42:50;1.80;93.60
3418;DHT22;1722;51.316;12.370;2023-02-05T09:45:33;1.80;93.60
3418;DHT22;1722;51.316;12.370;2023-02-05T09:48:07;1.80;93.60
3418;DHT22;1722;51.316;12.370;2023-02-05T09:50:40;1.80;94.20
3418;DHT22;1722;51.316;12.370;2023-02-05T09:53:12;1.80;94.80
3418;DHT22;1722;51.316;12.370;2023-02-05T09:55:42;1.80;94.40
3418;DHT22;1722;51.316;12.370;2023-02-05T09:58:12;1.90;94.50
3418;DHT22;1722;51.316;12.370;2023-02-05T10:00:45;1.90;93.70
3418;DHT22;1722;51.316;12.370;2023-02-05T10:03:20;1.90;93.40
3418;DHT22;1722;51.316;12.370;2023-02-05T10:06:04;2.00;93.50
3418;DHT22;1722;51.316;12.370;2023-02-05T10:08:39;2.00;94.30
3418;DHT22;1722;51.316;12.370;2023-02-05T10:11:12;2.10;94.30
3418;DHT22;1722;51.316;12.370;2023-02-05T10:13:43;2.10;94.40
3418;DHT22;1722;51.316;12.370;2023-02-05T10:16:38;2.20;94.40
3418;DHT22;1722;51.316;12.370;2023-02-05T10:19:25;2.20;93.60
3418;DHT22;1722;51.316;12.370;2023-02-05T10:22:06;2.30;94.40
3418;DHT22;1722;51.316;12.370;2023-02-05T10:27:40;2.30;93.70
3418;DHT22;1722;51.316;12.370;2023-02-05T10:30:15;2.40;93.10
3418;DHT22;1722;51.316;12.370;2023-02-05T10:32:54;2.40;93.30
3418;DHT22;1722;51.316;12.370;2023-02-05T10:35:24;2.40;93.30
3418;DHT22;1722;51.316;12.370;2023-02-05T10:37:54;2.50;93.10
3418;DHT22;1722;51.316;12.370;2023-02-05T10:40:25;2.50;92.90
3418;DHT22;1722;51.316;12.370;2023-02-05T10:43:00;2.50;93.00
3418;DHT22;1722;51.316;12.370;2023-02-05T10:45:31;2.50;93.00
3418;DHT22;1722;51.316;12.370;2023-02-05T10:50:58;2.60;92.70
3418;DHT22;1722;51.316;12.370;2023-02-05T10:53:28;2.60;92.70
3418;DHT22;1722;51.316;12.370;2023-02-05T10:55:57;2.60;92.90
3418;DHT22;1722;51.316;12.370;2023-02-05T10:58:43;2.70;93.00
3418;DHT22;1722;51.316;12.370;2023-02-05T11:01:15;2.80;92.70
3418;DHT22;1722;51.316;12.370;2023-02-05T11:03:52;2.80;92.70
3418;DHT22;1722;51.316;12.370;2023-02-05T11:06:22;2.80;92.40
3418;DHT22;1722;51.316;12.370;2023-02-05T11:08:52;2.80;92.20
3418;DHT22;1722;51.316;12.370;2023-02-05T11:11:22;2.80;92.40
3418;DHT22;1722;51.316;12.370;2023-02-05T11:13:54;2.90;92.20
3418;DHT22;1722;51.316;12.370;2023-02-05T11:16:22;2.90;92.00
3418;DHT22;1722;51.316;12.370;2023-02-05T11:18:59;2.90;91.80
3418;DHT22;1722;51.316;12.370;2023-02-05T11:21:45;3.00;91.70
3418;DHT22;1722;51.316;12.370;2023-02-05T11:24:37;3.00;91.60
3418;DHT22;1722;51.316;12.370;2023-02-05T11:27:24;3.10;91.60
3418;DHT22;1722;51.316;12.370;2023-02-05T11:29:53;3.20;91.60
3418;DHT22;1722;51.316;12.370;2023-02-05T11:32:22;3.20;91.60
3418;DHT22;1722;51.316;12.370;2023-02-05T11:35:11;3.30;91.80
3418;DHT22;1722;51.316;12.370;2023-02-05T11:37:42;3.20;91.80
3418;DHT22;1722;51.316;12.370;2023-02-05T11:40:21;3.30;91.70
3418;DHT22;1722;51.316;12.370;2023-02-05T11:43:00;3.30;91.50
3418;DHT22;1722;51.316;12.370;2023-02-05T11:45:30;3.30;91.60
3418;DHT22;1722;51.316;12.370;2023-02-05T11:48:01;3.40;91.50
3418;DHT22;1722;51.316;12.370;2023-02-05T11:50:31;3.40;91.20
3418;DHT22;1722;51.316;12.370;2023-02-05T11:53:08;3.40;90.80
3418;DHT22;1722;51.316;12.370;2023-02-05T11:55:40;3.40;91.00
3418;DHT22;1722;51.316;12.370;2023-02-05T11:58:19;3.50;90.90
3418;DHT22;1722;51.316;12.370;2023-02-05T12:00:51;3.50;90.10
3418;DHT22;1722;51.316;12.370;2023-02-05T12:03:19;3.50;89.50
3418;DHT22;1722;51.316;12.370;2023-02-05T12:05:53;3.50;89.80
3418;DHT22;1722;51.316;12.370;2023-02-05T12:08:29;3.60;90.00
3418;DHT22;1722;51.316;12.370;2023-02-05T12:13:56;3.60;90.60
3418;DHT22;1722;51.316;12.370;2023-02-05T12:16:39;3.60;90.50
3418;DHT22;1722;51.316;12.370;2023-02-05T12:19:17;3.60;90.60
3418;DHT22;1722;51.316;12.370;2023-02-05T12:21:49;3.60;90.70
3418;DHT22;1722;51.316;12.370;2023-02-05T12:24:38;3.60;90.90
3418;DHT22;1722;51.316;12.370;2023-02-05T12:27:19;3.60;90.90
3418;DHT22;1722;51.316;12.370;2023-02-05T12:30:02;3.60;91.00
3418;DHT22;1722;51.316;12.370;2023-02-05T12:32:39;3.60;91.10
3418;DHT22;1722;51.316;12.370;2023-02-05T12:35:21;3.60;91.20
3418;DHT22;1722;51.316;12.370;2023-02-05T12:38:03;3.70;90.90
3418;DHT22;1722;51.316;12.370;2023-02-05T12:40:41;3.70;90.70
3418;DHT22;1722;51.316;12.370;2023-02-05T12:43:23;3.70;90.40
3418;DHT22;1722;51.316;12.370;2023-02-05T12:45:59;3.70;90.20
3418;DHT22;1722;51.316;12.370;2023-02-05T12:48:43;3.70;90.40
3418;DHT22;1722;51.316;12.370;2023-02-05T12:51:26;3.80;90.50
3418;DHT22;1722;51.316;12.370;2023-02-05T12:54:15;3.80;90.20
3418;DHT22;1722;51.316;12.370;2023-02-05T12:56:53;3.80;90.30
3418;DHT22;1722;51.316;12.370;2023-02-05T12:59:35;3.80;90.00
3418;DHT22;1722;51.316;12.370;2023-02-05T13:02:12;3.80;90.10
3418;DHT22;1722;51.316;12.370;2023-02-05T13:04:44;3.80;90.30
3418;DHT22;1722;51.316;12.370;2023-02-05T13:07:27;3.80;90.40
3418;DHT22;1722;51.316;12.370;2023-02-05T13:10:00;3.80;90.00
3418;DHT22;1722;51.316;12.370;2023-02-05T13:12:33;3.80;90.20
3418;DHT22;1722;51.316;12.370;2023-02-05T13:15:07;3.80;90.20
3418;DHT22;1722;51.316;12.370;2023-02-05T13:17:44;3.90;91.30
3418;DHT22;1722;51.316;12.370;2023-02-05T13:20:21;3.90;90.50
3418;DHT22;1722;51.316;12.370;2023-02-05T13:23:10;4.00;90.20
3418;DHT22;1722;51.316;12.370;2023-02-05T13:25:58;4.00;89.80
3418;DHT22;1722;51.316;12.370;2023-02-05T13:28:46;4.00;89.90
3418;DHT22;1722;51.316;12.370;2023-02-05T13:31:23;4.00;90.40
3418;DHT22;1722;51.316;12.370;2023-02-05T13:33:52;4.00;90.10
3418;DHT22;1722;51.316;12.370;2023-02-05T13:36:44;4.00;90.20
3418;DHT22;1722;51.316;12.370;2023-02-05T13:39:30;4.00;90.30
3418;DHT22;1722;51.316;12.370;2023-02-05T13:42:17;4.00;90.20
3418;DHT22;1722;51.316;12.370;2023-02-05T13:45:20;4.00;90.40
3418;DHT22;1722;51.316;12.370;2023-02-05T13:48:18;4.00;90.50
3418;DHT22;1722;51.316;12.370;2023-02-05T13:51:18;4.00;90.50
3418;DHT22;1722;51.316;12.370;2023-02-05T13:54:01;4.00;90.60
3418;DHT22;1722;51.316;12.370;2023-02-05T13:56:47;4.00;90.60
3418;DHT22;1722;51.316;12.370;2023-02-05T13:59:21;4.00;90.60
3418;DHT22;1722;51.316;12.370;2023-02-05T14:01:54;4.00;90.70
3418;DHT22;1722;51.316;12.370;2023-02-05T14:04:25;4.00;90.70
3418;DHT22;1722;51.316;12.370;2023-02-05T14:06:59;4.00;90.70
3418;DHT22;1722;51.316;12.370;2023-02-05T14:09:33;4.00;90.60
3418;DHT22;1722;51.316;12.370;2023-02-05T14:12:04;4.10;90.60
3418;DHT22;1722;51.316;12.370;2023-02-05T14:14:34;4.10;90.50
3418;DHT22;1722;51.316;12.370;2023-02-05T14:20:35;4.20;90.50
3418;DHT22;1722;51.316;12.370;2023-02-05T14:23:11;4.10;90.40
3418;DHT22;1722;51.316;12.370;2023-02-05T14:26:06;4.10;90.40
3418;DHT22;1722;51.316;12.370;2023-02-05T14:28:42;4.10;90.50
3418;DHT22;1722;51.316;12.370;2023-02-05T14:34:45;4.20;90.40
3418;DHT22;1722;51.316;12.370;2023-02-05T14:37:34;4.20;90.50
3418;DHT22;1722;51.316;12.370;2023-02-05T14:40:30;4.20;90.40
3418;DHT22;1722;51.316;12.370;2023-02-05T14:43:00;4.20;90.30
3418;DHT22;1722;51.316;12.370;2023-02-05T14:45:31;4.10;90.50
3418;DHT22;1722;51.316;12.370;2023-02-05T14:48:00;4.20;90.50
3418;DHT22;1722;51.316;12.370;2023-02-05T14:50:29;4.10;90.40
3418;DHT22;1722;51.316;12.370;2023-02-05T14:52:58;4.10;90.40
3418;DHT22;1722;51.316;12.370;2023-02-05T14:55:27;4.10;90.40
3418;DHT22;1722;51.316;12.370;2023-02-05T14:58:01;4.10;90.50
3418;DHT22;1722;51.316;12.370;2023-02-05T15:00:32;4.10;90.40
3418;DHT22;1722;51.316;12.370;2023-02-05T15:03:25;4.10;90.40
3418;DHT22;1722;51.316;12.370;2023-02-05T15:06:02;4.10;89.60
3418;DHT22;1722;51.316;12.370;2023-02-05T15:08:47;4.10;90.20
3418;DHT22;1722;51.316;12.370;2023-02-05T15:11:24;4.10;89.90
3418;DHT22;1722;51.316;12.370;2023-02-05T15:14:25;4.10;90.60
3418;DHT22;1722;51.316;12.370;2023-02-05T15:23:02;4.10;90.10
3418;DHT22;1722;51.316;12.370;2023-02-05T15:25:40;4.10;90.20
3418;DHT22;1722;51.316;12.370;2023-02-05T15:28:23;4.10;90.50
3418;DHT22;1722;51.316;12.370;2023-02-05T15:31:05;4.10;90.30
3418;DHT22;1722;51.316;12.370;2023-02-05T15:33:41;4.00;90.30
3418;DHT22;1722;51.316;12.370;2023-02-05T15:36:18;4.10;90.50
3418;DHT22;1722;51.316;12.370;2023-02-05T15:38:52;4.10;90.40
3418;DHT22;1722;51.316;12.370;2023-02-05T15:41:29;4.10;90.30
3418;DHT22;1722;51.316;12.370;2023-02-05T15:44:00;4.10;90.60
3418;DHT22;1722;51.316;12.370;2023-02-05T15:46:30;4.10;90.50
3418;DHT22;1722;51.316;12.370;2023-02-05T15:48:59;4.00;90.50
3418;DHT22;1722;51.316;12.370;2023-02-05T15:51:30;4.10;90.60
3418;DHT22;1722;51.316;12.370;2023-02-05T15:54:02;4.00;90.60
3418;DHT22;1722;51.316;12.370;2023-02-05T15:56:33;4.00;90.70
3418;DHT22;1722;51.316;12.370;2023-02-05T15:59:04;4.00;90.70
3418;DHT22;1722;51.316;12.370;2023-02-05T16:01:39;4.00;90.80
3418;DHT22;1722;51.316;12.370;2023-02-05T16:04:16;3.90;90.80
3418;DHT22;1722;51.316;12.370;2023-02-05T16:06:44;3.80;90.50
3418;DHT22;1722;51.316;12.370;2023-02-05T16:09:16;3.80;91.00
3418;DHT22;1722;51.316;12.370;2023-02-05T16:11:46;3.80;91.10
3418;DHT22;1722;51.316;12.370;2023-02-05T16:14:16;3.80;91.10
3418;DHT22;1722;51.316;12.370;2023-02-05T16:16:55;3.70;91.20
3418;DHT22;1722;51.316;12.370;2023-02-05T16:19:26;3.70;91.20
3418;DHT22;1722;51.316;12.370;2023-02-05T16:21:59;3.70;91.20
3418;DHT22;1722;51.316;12.370;2023-02-05T16:24:31;3.60;91.30
3418;DHT22;1722;51.316;12.370;2023-02-05T16:27:03;3.60;91.40
3418;DHT22;1722;51.316;12.370;2023-02-05T16:29:36;3.60;91.40
3418;DHT22;1722;51.316;12.370;2023-02-05T16:32:06;3.50;91.40
3418;DHT22;1722;51.316;12.370;2023-02-05T16:34:37;3.50;91.30
3418;DHT22;1722;51.316;12.370;2023-02-05T16:37:07;3.50;91.40
3418;DHT22;1722;51.316;12.370;2023-02-05T16:39:43;3.40;91.40
3418;DHT22;1722;51.316;12.370;2023-02-05T16:42:25;3.40;91.50
3418;DHT22;1722;51.316;12.370;2023-02-05T16:48:14;3.30;91.50
3418;DHT22;1722;51.316;12.370;2023-02-05T16:50:46;3.20;91.40
3418;DHT22;1722;51.316;12.370;2023-02-05T16:53:18;3.20;91.50
3418;DHT22;1722;51.316;12.370;2023-02-05T16:55:48;3.20;91.60
3418;DHT22;1722;51.316;12.370;2023-02-05T16:58:19;3.20;91.60
3418;DHT22;1722;51.316;12.370;2023-02-05T17:00:51;3.20;91.50